sensor_id;sensor_type;location;lat;lon;timestamp;P1;durP1;ratioP1;P2;durP2;ratioP2
5077;SDS011;2557;51.390;7.494;2023-08-17T00:01:51;10.40;;;8.27;;
5077;SDS011;2557;51.390;7.494;2023-08-17T00:04:18;11.20;;;9.07;;
5077;SDS011;2557;51.390;7.494;2023-08-17T00:06:44;13.07;;;8.40;;
5077;SDS011;2557;51.390;7.494;2023-08-17T00:09:11;15.83;;;9.50;;
5077;SDS011;2557;51.390;7.494;2023-08-17T00:11:38;10.77;;;9.67;;
5077;SDS011;2557;51.390;7.494;2023-08-17T00:14:04;12.90;;;9.00;;
5077;SDS011;2557;51.390;7.494;2023-08-17T00:16:30;11.60;;;9.10;;
5077;SDS011;2557;51.390;7.494;2023-08-17T00:18:56;12.60;;;8.23;;
5077;SDS011;2557;51.390;7.494;2023-08-17T00:21:22;13.80;;;9.40;;
5077;SDS011;2557;51.390;7.494;2023-08-17T00:23:49;15.10;;;9.83;;
5077;SDS011;2557;51.390;7.494;2023-08-17T00:26:15;11.80;;;9.53;;
5077;SDS011;2557;51.390;7.494;2023-08-17T00:28:41;11.97;;;9.77;;
5077;SDS011;2557;51.390;7.494;2023-08-17T00:31:07;13.83;;;8.13;;
5077;SDS011;2557;51.390;7.494;2023-08-17T00:33:33;8.57;;;7.77;;
5077;SDS011;2557;51.390;7.494;2023-08-17T00:35:59;8.97;;;6.53;;
5077;SDS011;2557;51.390;7.494;2023-08-17T00:38:25;7.00;;;5.67;;
5077;SDS011;2557;51.390;7.494;2023-08-17T00:40:51;8.17;;;6.17;;
5077;SDS011;2557;51.390;7.494;2023-08-17T00:43:17;6.97;;;6.37;;
5077;SDS011;2557;51.390;7.494;2023-08-17T00:45:43;6.37;;;5.87;;
5077;SDS011;2557;51.390;7.494;2023-08-17T00:48:10;7.10;;;6.40;;
5077;SDS011;2557;51.390;7.494;2023-08-17T00:50:36;6.40;;;5.83;;
5077;SDS011;2557;51.390;7.494;2023-08-17T00:53:03;6.40;;;5.80;;
5077;SDS011;2557;51.390;7.494;2023-08-17T00:55:29;6.43;;;5.90;;
5077;SDS011;2557;51.390;7.494;2023-08-17T00:57:56;7.80;;;7.00;;
5077;SDS011;2557;51.390;7.494;2023-08-17T01:00:23;6.43;;;5.83;;
5077;SDS011;2557;51.390;7.494;2023-08-17T01:02:50;6.10;;;5.57;;
5077;SDS011;2557;51.390;7.494;2023-08-17T01:05:16;6.60;;;5.90;;
5077;SDS011;2557;51.390;7.494;2023-08-17T01:07:42;7.13;;;6.03;;
5077;SDS011;2557;51.390;7.494;2023-08-17T01:10:08;5.97;;;5.47;;
5077;SDS011;2557;51.390;7.494;2023-08-17T01:12:39;8.03;;;6.10;;
5077;SDS011;2557;51.390;7.494;2023-08-17T01:18:21;15.50;;;5.60;;
5077;SDS011;2557;51.390;7.494;2023-08-17T01:20:25;6.63;;;5.90;;
5077;SDS011;2557;51.390;7.494;2023-08-17T01:22:52;9.23;;;5.90;;
5077;SDS011;2557;51.390;7.494;2023-08-17T01:25:18;6.83;;;6.20;;
5077;SDS011;2557;51.390;7.494;2023-08-17T01:27:45;7.20;;;5.97;;
5077;SDS011;2557;51.390;7.494;2023-08-17T01:30:11;7.47;;;6.50;;
5077;SDS011;2557;51.390;7.494;2023-08-17T01:32:51;6.53;;;5.93;;
5077;SDS011;2557;51.390;7.494;2023-08-17T01:35:21;6.73;;;6.20;;
5077;SDS011;2557;51.390;7.494;2023-08-17T01:37:52;7.03;;;6.33;;
5077;SDS011;2557;51.390;7.494;2023-08-17T01:40:19;7.27;;;6.57;;
5077;SDS011;2557;51.390;7.494;2023-08-17T01:42:45;10.07;;;6.90;;
5077;SDS011;2557;51.390;7.494;2023-08-17T01:45:11;11.73;;;7.53;;
5077;SDS011;2557;51.390;7.494;2023-08-17T01:47:38;10.03;;;7.70;;
5077;SDS011;2557;51.390;7.494;2023-08-17T01:50:04;9.13;;;7.73;;
5077;SDS011;2557;51.390;7.494;2023-08-17T01:52:30;9.20;;;7.20;;
5077;SDS011;2557;51.390;7.494;2023-08-17T01:54:56;11.10;;;7.77;;
5077;SDS011;2557;51.390;7.494;2023-08-17T01:57:22;9.23;;;7.50;;
5077;SDS011;2557;51.390;7.494;2023-08-17T01:59:48;10.80;;;7.93;;
5077;SDS011;2557;51.390;7.494;2023-08-17T02:02:14;8.97;;;8.07;;
5077;SDS011;2557;51.390;7.494;2023-08-17T02:04:40;8.13;;;7.33;;
5077;SDS011;2557;51.390;7.494;2023-08-17T02:07:06;11.17;;;7.57;;
5077;SDS011;2557;51.390;7.494;2023-08-17T02:09:32;10.70;;;7.80;;
5077;SDS011;2557;51.390;7.494;2023-08-17T02:11:58;9.10;;;8.10;;
5077;SDS011;2557;51.390;7.494;2023-08-17T02:14:24;8.13;;;7.33;;
5077;SDS011;2557;51.390;7.494;2023-08-17T02:16:50;11.57;;;7.63;;
5077;SDS011;2557;51.390;7.494;2023-08-17T02:19:17;8.90;;;7.33;;
5077;SDS011;2557;51.390;7.494;2023-08-17T02:21:43;7.83;;;7.10;;
5077;SDS011;2557;51.390;7.494;2023-08-17T02:24:10;9.30;;;8.10;;
5077;SDS011;2557;51.390;7.494;2023-08-17T02:26:36;8.73;;;7.87;;
5077;SDS011;2557;51.390;7.494;2023-08-17T02:29:03;10.23;;;8.90;;
5077;SDS011;2557;51.390;7.494;2023-08-17T02:31:29;8.80;;;7.67;;
5077;SDS011;2557;51.390;7.494;2023-08-17T02:33:55;14.03;;;9.90;;
5077;SDS011;2557;51.390;7.494;2023-08-17T02:36:25;12.33;;;9.00;;
5077;SDS011;2557;51.390;7.494;2023-08-17T02:38:51;14.03;;;9.50;;
5077;SDS011;2557;51.390;7.494;2023-08-17T02:41:18;10.93;;;9.83;;
5077;SDS011;2557;51.390;7.494;2023-08-17T02:43:44;11.97;;;9.00;;
5077;SDS011;2557;51.390;7.494;2023-08-17T02:46:10;10.30;;;8.80;;
5077;SDS011;2557;51.390;7.494;2023-08-17T02:48:36;12.43;;;11.17;;
5077;SDS011;2557;51.390;7.494;2023-08-17T02:51:02;13.40;;;10.30;;
5077;SDS011;2557;51.390;7.494;2023-08-17T02:53:28;13.73;;;11.13;;
5077;SDS011;2557;51.390;7.494;2023-08-17T02:55:54;13.93;;;10.43;;
5077;SDS011;2557;51.390;7.494;2023-08-17T02:58:20;12.43;;;11.03;;
5077;SDS011;2557;51.390;7.494;2023-08-17T03:00:46;11.73;;;10.10;;
5077;SDS011;2557;51.390;7.494;2023-08-17T03:03:12;12.30;;;11.00;;
5077;SDS011;2557;51.390;7.494;2023-08-17T03:05:38;14.17;;;10.60;;
5077;SDS011;2557;51.390;7.494;2023-08-17T03:08:04;15.13;;;12.40;;
5077;SDS011;2557;51.390;7.494;2023-08-17T03:10:30;14.30;;;10.57;;
5077;SDS011;2557;51.390;7.494;2023-08-17T03:12:56;14.60;;;13.10;;
5077;SDS011;2557;51.390;7.494;2023-08-17T03:15:22;15.50;;;12.53;;
5077;SDS011;2557;51.390;7.494;2023-08-17T03:17:48;15.67;;;11.47;;
5077;SDS011;2557;51.390;7.494;2023-08-17T03:20:14;17.90;;;12.33;;
5077;SDS011;2557;51.390;7.494;2023-08-17T03:22:40;15.67;;;14.03;;
5077;SDS011;2557;51.390;7.494;2023-08-17T03:25:07;17.33;;;15.20;;
5077;SDS011;2557;51.390;7.494;2023-08-17T03:27:33;17.90;;;14.30;;
5077;SDS011;2557;51.390;7.494;2023-08-17T03:29:59;19.60;;;15.17;;
5077;SDS011;2557;51.390;7.494;2023-08-17T03:32:25;18.50;;;15.17;;
5077;SDS011;2557;51.390;7.494;2023-08-17T03:34:51;21.80;;;16.30;;
5077;SDS011;2557;51.390;7.494;2023-08-17T03:37:17;17.87;;;13.97;;
5077;SDS011;2557;51.390;7.494;2023-08-17T03:39:43;17.70;;;14.93;;
5077;SDS011;2557;51.390;7.494;2023-08-17T03:42:09;18.00;;;16.07;;
5077;SDS011;2557;51.390;7.494;2023-08-17T03:44:35;24.33;;;15.23;;
5077;SDS011;2557;51.390;7.494;2023-08-17T03:47:01;16.97;;;15.20;;
5077;SDS011;2557;51.390;7.494;2023-08-17T03:49:26;17.00;;;14.57;;
5077;SDS011;2557;51.390;7.494;2023-08-17T03:51:53;20.33;;;16.60;;
5077;SDS011;2557;51.390;7.494;2023-08-17T03:54:19;20.53;;;15.70;;
5077;SDS011;2557;51.390;7.494;2023-08-17T03:56:45;20.00;;;16.00;;
5077;SDS011;2557;51.390;7.494;2023-08-17T03:59:11;21.70;;;16.73;;
5077;SDS011;2557;51.390;7.494;2023-08-17T04:01:37;20.90;;;16.03;;
5077;SDS011;2557;51.390;7.494;2023-08-17T04:04:03;22.33;;;16.47;;
5077;SDS011;2557;51.390;7.494;2023-08-17T04:06:29;18.97;;;16.10;;
5077;SDS011;2557;51.390;7.494;2023-08-17T04:08:55;18.47;;;16.17;;
5077;SDS011;2557;51.390;7.494;2023-08-17T04:11:21;19.77;;;15.90;;
5077;SDS011;2557;51.390;7.494;2023-08-17T04:13:47;18.90;;;16.10;;
5077;SDS011;2557;51.390;7.494;2023-08-17T04:16:13;22.93;;;16.87;;
5077;SDS011;2557;51.390;7.494;2023-08-17T04:18:39;20.33;;;15.70;;
5077;SDS011;2557;51.390;7.494;2023-08-17T04:21:05;18.23;;;16.20;;
5077;SDS011;2557;51.390;7.494;2023-08-17T04:23:31;20.37;;;16.20;;
5077;SDS011;2557;51.390;7.494;2023-08-17T04:25:57;25.97;;;15.90;;
5077;SDS011;2557;51.390;7.494;2023-08-17T04:28:23;18.03;;;15.87;;
5077;SDS011;2557;51.390;7.494;2023-08-17T04:30:49;23.37;;;18.13;;
5077;SDS011;2557;51.390;7.494;2023-08-17T04:33:15;23.13;;;16.67;;
5077;SDS011;2557;51.390;7.494;2023-08-17T04:35:41;25.03;;;16.97;;
5077;SDS011;2557;51.390;7.494;2023-08-17T04:38:07;26.33;;;16.77;;
5077;SDS011;2557;51.390;7.494;2023-08-17T04:40:33;21.53;;;17.03;;
5077;SDS011;2557;51.390;7.494;2023-08-17T04:42:59;20.83;;;16.87;;
5077;SDS011;2557;51.390;7.494;2023-08-17T04:45:25;19.17;;;17.13;;
5077;SDS011;2557;51.390;7.494;2023-08-17T04:47:51;24.83;;;16.30;;
5077;SDS011;2557;51.390;7.494;2023-08-17T04:50:17;18.93;;;17.03;;
5077;SDS011;2557;51.390;7.494;2023-08-17T04:52:44;22.53;;;16.50;;
5077;SDS011;2557;51.390;7.494;2023-08-17T04:55:10;20.07;;;17.10;;
5077;SDS011;2557;51.390;7.494;2023-08-17T04:57:36;20.20;;;17.40;;
5077;SDS011;2557;51.390;7.494;2023-08-17T05:00:02;22.43;;;17.30;;
5077;SDS011;2557;51.390;7.494;2023-08-17T05:02:29;19.43;;;16.43;;
5077;SDS011;2557;51.390;7.494;2023-08-17T05:04:55;18.13;;;16.07;;
5077;SDS011;2557;51.390;7.494;2023-08-17T05:07:21;20.70;;;17.50;;
5077;SDS011;2557;51.390;7.494;2023-08-17T05:09:47;20.93;;;18.73;;
5077;SDS011;2557;51.390;7.494;2023-08-17T05:12:13;26.00;;;19.63;;
5077;SDS011;2557;51.390;7.494;2023-08-17T05:14:39;25.20;;;17.73;;
5077;SDS011;2557;51.390;7.494;2023-08-17T05:17:05;27.90;;;18.07;;
5077;SDS011;2557;51.390;7.494;2023-08-17T05:19:31;22.30;;;18.40;;
5077;SDS011;2557;51.390;7.494;2023-08-17T05:21:57;29.33;;;19.20;;
5077;SDS011;2557;51.390;7.494;2023-08-17T05:24:23;34.23;;;20.90;;
5077;SDS011;2557;51.390;7.494;2023-08-17T05:26:49;21.20;;;17.83;;
5077;SDS011;2557;51.390;7.494;2023-08-17T05:29:15;29.50;;;18.77;;
5077;SDS011;2557;51.390;7.494;2023-08-17T05:31:41;23.20;;;18.90;;
5077;SDS011;2557;51.390;7.494;2023-08-17T05:34:07;20.30;;;17.63;;
5077;SDS011;2557;51.390;7.494;2023-08-17T05:36:33;25.90;;;19.70;;
5077;SDS011;2557;51.390;7.494;2023-08-17T05:38:59;25.80;;;18.87;;
5077;SDS011;2557;51.390;7.494;2023-08-17T05:41:25;22.57;;;17.63;;
5077;SDS011;2557;51.390;7.494;2023-08-17T05:43:51;30.00;;;18.57;;
5077;SDS011;2557;51.390;7.494;2023-08-17T05:46:17;35.17;;;18.97;;
5077;SDS011;2557;51.390;7.494;2023-08-17T05:48:43;28.73;;;21.13;;
5077;SDS011;2557;51.390;7.494;2023-08-17T05:51:09;24.70;;;18.50;;
5077;SDS011;2557;51.390;7.494;2023-08-17T05:53:35;24.80;;;20.27;;
5077;SDS011;2557;51.390;7.494;2023-08-17T05:56:01;27.17;;;20.60;;
5077;SDS011;2557;51.390;7.494;2023-08-17T05:58:28;32.23;;;21.10;;
5077;SDS011;2557;51.390;7.494;2023-08-17T06:00:53;27.57;;;20.87;;
5077;SDS011;2557;51.390;7.494;2023-08-17T06:03:20;31.50;;;19.83;;
5077;SDS011;2557;51.390;7.494;2023-08-17T06:05:46;27.40;;;20.57;;
5077;SDS011;2557;51.390;7.494;2023-08-17T06:08:12;35.17;;;22.53;;
5077;SDS011;2557;51.390;7.494;2023-08-17T06:10:38;32.30;;;22.10;;
5077;SDS011;2557;51.390;7.494;2023-08-17T06:13:04;29.17;;;22.10;;
5077;SDS011;2557;51.390;7.494;2023-08-17T06:15:30;24.60;;;20.80;;
5077;SDS011;2557;51.390;7.494;2023-08-17T06:17:56;29.67;;;22.40;;
5077;SDS011;2557;51.390;7.494;2023-08-17T06:20:22;35.23;;;24.03;;
5077;SDS011;2557;51.390;7.494;2023-08-17T06:22:48;33.27;;;24.33;;
5077;SDS011;2557;51.390;7.494;2023-08-17T06:25:14;31.63;;;22.60;;
5077;SDS011;2557;51.390;7.494;2023-08-17T06:27:41;31.93;;;24.10;;
5077;SDS011;2557;51.390;7.494;2023-08-17T06:30:08;32.17;;;23.90;;
5077;SDS011;2557;51.390;7.494;2023-08-17T06:32:34;32.07;;;24.30;;
5077;SDS011;2557;51.390;7.494;2023-08-17T06:35:00;30.47;;;22.40;;
5077;SDS011;2557;51.390;7.494;2023-08-17T06:37:26;36.97;;;24.07;;
5077;SDS011;2557;51.390;7.494;2023-08-17T06:39:52;27.87;;;21.40;;
5077;SDS011;2557;51.390;7.494;2023-08-17T06:42:18;28.80;;;23.07;;
5077;SDS011;2557;51.390;7.494;2023-08-17T06:44:44;27.00;;;23.10;;
5077;SDS011;2557;51.390;7.494;2023-08-17T06:47:10;29.90;;;21.97;;
5077;SDS011;2557;51.390;7.494;2023-08-17T06:49:36;26.07;;;23.23;;
5077;SDS011;2557;51.390;7.494;2023-08-17T06:52:02;31.03;;;23.07;;
5077;SDS011;2557;51.390;7.494;2023-08-17T06:54:28;29.63;;;21.60;;
5077;SDS011;2557;51.390;7.494;2023-08-17T06:56:55;26.80;;;21.27;;
5077;SDS011;2557;51.390;7.494;2023-08-17T06:59:21;27.43;;;21.97;;
5077;SDS011;2557;51.390;7.494;2023-08-17T07:01:47;24.50;;;19.27;;
5077;SDS011;2557;51.390;7.494;2023-08-17T07:04:13;22.97;;;20.00;;
5077;SDS011;2557;51.390;7.494;2023-08-17T07:06:39;24.80;;;19.07;;
5077;SDS011;2557;51.390;7.494;2023-08-17T07:09:06;26.37;;;21.00;;
5077;SDS011;2557;51.390;7.494;2023-08-17T07:11:32;30.70;;;20.53;;
5077;SDS011;2557;51.390;7.494;2023-08-17T07:13:58;26.83;;;18.73;;
5077;SDS011;2557;51.390;7.494;2023-08-17T07:16:24;26.23;;;19.63;;
5077;SDS011;2557;51.390;7.494;2023-08-17T07:18:50;31.40;;;20.70;;
5077;SDS011;2557;51.390;7.494;2023-08-17T07:21:16;29.00;;;20.47;;
5077;SDS011;2557;51.390;7.494;2023-08-17T07:23:44;30.13;;;20.20;;
5077;SDS011;2557;51.390;7.494;2023-08-17T07:26:10;25.77;;;18.83;;
5077;SDS011;2557;51.390;7.494;2023-08-17T07:28:36;25.13;;;20.70;;
5077;SDS011;2557;51.390;7.494;2023-08-17T07:31:02;23.10;;;18.80;;
5077;SDS011;2557;51.390;7.494;2023-08-17T07:33:30;29.67;;;21.03;;
5077;SDS011;2557;51.390;7.494;2023-08-17T07:35:56;26.40;;;21.13;;
5077;SDS011;2557;51.390;7.494;2023-08-17T07:38:23;34.70;;;23.13;;
5077;SDS011;2557;51.390;7.494;2023-08-17T07:40:49;28.43;;;22.67;;
5077;SDS011;2557;51.390;7.494;2023-08-17T07:43:15;30.88;;;23.45;;
5077;SDS011;2557;51.390;7.494;2023-08-17T07:45:41;35.53;;;22.90;;
5077;SDS011;2557;51.390;7.494;2023-08-17T07:48:07;33.67;;;24.63;;
5077;SDS011;2557;51.390;7.494;2023-08-17T07:50:33;24.43;;;21.50;;
5077;SDS011;2557;51.390;7.494;2023-08-17T07:52:59;22.43;;;18.57;;
5077;SDS011;2557;51.390;7.494;2023-08-17T07:55:26;26.60;;;20.27;;
5077;SDS011;2557;51.390;7.494;2023-08-17T07:57:52;23.60;;;18.23;;
5077;SDS011;2557;51.390;7.494;2023-08-17T08:00:18;21.30;;;17.00;;
5077;SDS011;2557;51.390;7.494;2023-08-17T08:02:44;19.67;;;15.70;;
5077;SDS011;2557;51.390;7.494;2023-08-17T08:05:10;22.40;;;17.37;;
5077;SDS011;2557;51.390;7.494;2023-08-17T08:07:39;21.57;;;16.60;;
5077;SDS011;2557;51.390;7.494;2023-08-17T08:10:05;22.67;;;16.13;;
5077;SDS011;2557;51.390;7.494;2023-08-17T08:12:31;21.20;;;17.23;;
5077;SDS011;2557;51.390;7.494;2023-08-17T08:14:57;21.93;;;16.13;;
5077;SDS011;2557;51.390;7.494;2023-08-17T08:17:23;23.57;;;16.70;;
5077;SDS011;2557;51.390;7.494;2023-08-17T08:19:49;20.17;;;16.50;;
5077;SDS011;2557;51.390;7.494;2023-08-17T08:22:16;24.20;;;17.47;;
5077;SDS011;2557;51.390;7.494;2023-08-17T08:24:42;26.63;;;15.70;;
5077;SDS011;2557;51.390;7.494;2023-08-17T08:27:08;20.93;;;17.63;;
5077;SDS011;2557;51.390;7.494;2023-08-17T08:29:34;19.20;;;15.97;;
5077;SDS011;2557;51.390;7.494;2023-08-17T08:31:59;21.40;;;16.20;;
5077;SDS011;2557;51.390;7.494;2023-08-17T08:34:27;22.53;;;17.73;;
5077;SDS011;2557;51.390;7.494;2023-08-17T08:36:53;20.23;;;16.60;;
5077;SDS011;2557;51.390;7.494;2023-08-17T08:39:20;21.30;;;17.37;;
5077;SDS011;2557;51.390;7.494;2023-08-17T08:41:46;28.77;;;17.10;;
5077;SDS011;2557;51.390;7.494;2023-08-17T08:44:12;22.40;;;16.77;;
5077;SDS011;2557;51.390;7.494;2023-08-17T08:46:39;21.97;;;15.00;;
5077;SDS011;2557;51.390;7.494;2023-08-17T08:49:07;17.27;;;14.50;;
5077;SDS011;2557;51.390;7.494;2023-08-17T08:51:36;18.40;;;15.70;;
5077;SDS011;2557;51.390;7.494;2023-08-17T08:54:03;18.97;;;13.00;;
5077;SDS011;2557;51.390;7.494;2023-08-17T08:56:32;15.93;;;14.33;;
5077;SDS011;2557;51.390;7.494;2023-08-17T08:58:58;15.17;;;13.13;;
5077;SDS011;2557;51.390;7.494;2023-08-17T09:01:27;17.70;;;13.30;;
5077;SDS011;2557;51.390;7.494;2023-08-17T09:03:54;15.13;;;13.17;;
5077;SDS011;2557;51.390;7.494;2023-08-17T09:06:20;18.80;;;14.57;;
5077;SDS011;2557;51.390;7.494;2023-08-17T09:08:48;22.20;;;14.67;;
5077;SDS011;2557;51.390;7.494;2023-08-17T09:11:14;22.30;;;15.53;;
5077;SDS011;2557;51.390;7.494;2023-08-17T09:13:40;18.97;;;15.30;;
5077;SDS011;2557;51.390;7.494;2023-08-17T09:16:06;19.27;;;14.63;;
5077;SDS011;2557;51.390;7.494;2023-08-17T09:18:32;17.73;;;14.80;;
5077;SDS011;2557;51.390;7.494;2023-08-17T09:21:00;19.90;;;15.47;;
5077;SDS011;2557;51.390;7.494;2023-08-17T09:23:26;20.23;;;15.57;;
5077;SDS011;2557;51.390;7.494;2023-08-17T09:25:52;18.70;;;14.87;;
5077;SDS011;2557;51.390;7.494;2023-08-17T09:28:23;21.13;;;15.03;;
5077;SDS011;2557;51.390;7.494;2023-08-17T09:30:56;16.30;;;14.50;;
5077;SDS011;2557;51.390;7.494;2023-08-17T09:33:23;18.73;;;15.77;;
5077;SDS011;2557;51.390;7.494;2023-08-17T09:35:50;18.40;;;14.63;;
5077;SDS011;2557;51.390;7.494;2023-08-17T09:38:16;18.37;;;15.07;;
5077;SDS011;2557;51.390;7.494;2023-08-17T09:40:42;19.30;;;15.03;;
5077;SDS011;2557;51.390;7.494;2023-08-17T09:43:09;18.33;;;14.37;;
5077;SDS011;2557;51.390;7.494;2023-08-17T09:45:35;18.87;;;16.30;;
5077;SDS011;2557;51.390;7.494;2023-08-17T09:48:01;16.57;;;13.30;;
5077;SDS011;2557;51.390;7.494;2023-08-17T09:50:27;20.30;;;14.70;;
5077;SDS011;2557;51.390;7.494;2023-08-17T09:52:53;16.90;;;13.10;;
5077;SDS011;2557;51.390;7.494;2023-08-17T09:55:23;14.93;;;12.77;;
5077;SDS011;2557;51.390;7.494;2023-08-17T09:57:49;20.00;;;13.47;;
5077;SDS011;2557;51.390;7.494;2023-08-17T10:00:16;16.27;;;13.17;;
5077;SDS011;2557;51.390;7.494;2023-08-17T10:02:43;20.37;;;14.33;;
5077;SDS011;2557;51.390;7.494;2023-08-17T10:05:12;16.87;;;12.70;;
5077;SDS011;2557;51.390;7.494;2023-08-17T10:07:41;18.53;;;13.00;;
5077;SDS011;2557;51.390;7.494;2023-08-17T10:10:09;13.53;;;11.57;;
5077;SDS011;2557;51.390;7.494;2023-08-17T10:12:44;16.67;;;11.97;;
5077;SDS011;2557;51.390;7.494;2023-08-17T10:15:11;14.80;;;13.20;;
5077;SDS011;2557;51.390;7.494;2023-08-17T10:18:13;15.40;;;13.00;;
5077;SDS011;2557;51.390;7.494;2023-08-17T10:20:31;17.67;;;14.23;;
5077;SDS011;2557;51.390;7.494;2023-08-17T10:23:14;14.87;;;12.67;;
5077;SDS011;2557;51.390;7.494;2023-08-17T10:25:40;13.97;;;10.17;;
5077;SDS011;2557;51.390;7.494;2023-08-17T10:28:07;10.40;;;9.30;;
5077;SDS011;2557;51.390;7.494;2023-08-17T10:30:35;10.37;;;9.17;;
5077;SDS011;2557;51.390;7.494;2023-08-17T10:33:01;12.00;;;9.03;;
5077;SDS011;2557;51.390;7.494;2023-08-17T10:35:29;9.73;;;8.73;;
5077;SDS011;2557;51.390;7.494;2023-08-17T10:37:55;9.57;;;8.63;;
5077;SDS011;2557;51.390;7.494;2023-08-17T10:40:27;11.30;;;9.27;;
5077;SDS011;2557;51.390;7.494;2023-08-17T10:42:56;11.47;;;9.63;;
5077;SDS011;2557;51.390;7.494;2023-08-17T10:45:29;9.20;;;8.40;;
5077;SDS011;2557;51.390;7.494;2023-08-17T10:48:38;8.87;;;8.17;;
5077;SDS011;2557;51.390;7.494;2023-08-17T10:50:58;8.77;;;7.87;;
5077;SDS011;2557;51.390;7.494;2023-08-17T10:53:25;7.90;;;7.20;;
5077;SDS011;2557;51.390;7.494;2023-08-17T10:55:51;8.10;;;7.40;;
5077;SDS011;2557;51.390;7.494;2023-08-17T10:58:22;11.80;;;8.80;;
5077;SDS011;2557;51.390;7.494;2023-08-17T11:00:48;13.40;;;9.90;;
5077;SDS011;2557;51.390;7.494;2023-08-17T11:03:20;10.57;;;9.57;;
5077;SDS011;2557;51.390;7.494;2023-08-17T11:05:53;11.00;;;9.83;;
5077;SDS011;2557;51.390;7.494;2023-08-17T11:08:39;9.67;;;8.70;;
5077;SDS011;2557;51.390;7.494;2023-08-17T11:13:32;11.73;;;9.20;;
5077;SDS011;2557;51.390;7.494;2023-08-17T11:15:59;10.67;;;9.67;;
5077;SDS011;2557;51.390;7.494;2023-08-17T11:18:25;8.60;;;7.80;;
5077;SDS011;2557;51.390;7.494;2023-08-17T11:20:52;9.27;;;8.37;;
5077;SDS011;2557;51.390;7.494;2023-08-17T11:23:18;9.40;;;8.60;;
5077;SDS011;2557;51.390;7.494;2023-08-17T11:25:44;9.70;;;8.77;;
5077;SDS011;2557;51.390;7.494;2023-08-17T11:28:11;10.63;;;9.50;;
5077;SDS011;2557;51.390;7.494;2023-08-17T11:30:39;12.00;;;9.20;;
5077;SDS011;2557;51.390;7.494;2023-08-17T11:33:06;9.93;;;8.87;;
5077;SDS011;2557;51.390;7.494;2023-08-17T11:35:32;11.47;;;9.77;;
5077;SDS011;2557;51.390;7.494;2023-08-17T11:37:58;9.00;;;8.20;;
5077;SDS011;2557;51.390;7.494;2023-08-17T11:40:25;10.83;;;9.87;;
5077;SDS011;2557;51.390;7.494;2023-08-17T11:42:51;14.33;;;9.53;;
5077;SDS011;2557;51.390;7.494;2023-08-17T11:45:17;10.40;;;9.40;;
5077;SDS011;2557;51.390;7.494;2023-08-17T11:47:43;10.13;;;7.87;;
5077;SDS011;2557;51.390;7.494;2023-08-17T11:50:11;11.17;;;8.90;;
5077;SDS011;2557;51.390;7.494;2023-08-17T11:52:37;9.97;;;8.30;;
5077;SDS011;2557;51.390;7.494;2023-08-17T11:55:04;9.53;;;8.40;;
5077;SDS011;2557;51.390;7.494;2023-08-17T11:57:31;9.90;;;8.90;;
5077;SDS011;2557;51.390;7.494;2023-08-17T11:59:57;9.10;;;8.20;;
5077;SDS011;2557;51.390;7.494;2023-08-17T12:02:24;8.23;;;7.30;;
5077;SDS011;2557;51.390;7.494;2023-08-17T12:04:50;9.40;;;8.40;;
5077;SDS011;2557;51.390;7.494;2023-08-17T12:07:17;9.03;;;8.23;;
5077;SDS011;2557;51.390;7.494;2023-08-17T12:09:47;9.60;;;8.57;;
5077;SDS011;2557;51.390;7.494;2023-08-17T12:12:17;10.10;;;9.20;;
5077;SDS011;2557;51.390;7.494;2023-08-17T12:14:43;9.90;;;8.30;;
5077;SDS011;2557;51.390;7.494;2023-08-17T12:17:19;11.67;;;10.40;;
5077;SDS011;2557;51.390;7.494;2023-08-17T12:19:49;11.37;;;8.67;;
5077;SDS011;2557;51.390;7.494;2023-08-17T12:22:16;10.77;;;8.90;;
5077;SDS011;2557;51.390;7.494;2023-08-17T12:24:42;10.00;;;9.00;;
5077;SDS011;2557;51.390;7.494;2023-08-17T12:27:09;9.20;;;8.10;;
5077;SDS011;2557;51.390;7.494;2023-08-17T12:29:50;9.33;;;8.57;;
5077;SDS011;2557;51.390;7.494;2023-08-17T12:32:17;13.20;;;9.90;;
5077;SDS011;2557;51.390;7.494;2023-08-17T12:34:43;13.13;;;11.40;;
5077;SDS011;2557;51.390;7.494;2023-08-17T12:37:09;12.43;;;11.17;;
5077;SDS011;2557;51.390;7.494;2023-08-17T12:39:36;11.73;;;10.00;;
5077;SDS011;2557;51.390;7.494;2023-08-17T12:42:02;11.83;;;10.60;;
5077;SDS011;2557;51.390;7.494;2023-08-17T12:44:28;11.77;;;10.53;;
5077;SDS011;2557;51.390;7.494;2023-08-17T12:46:54;11.70;;;10.20;;
5077;SDS011;2557;51.390;7.494;2023-08-17T12:49:21;14.47;;;11.30;;
5077;SDS011;2557;51.390;7.494;2023-08-17T12:51:47;11.20;;;10.10;;
5077;SDS011;2557;51.390;7.494;2023-08-17T12:54:13;11.90;;;10.47;;
5077;SDS011;2557;51.390;7.494;2023-08-17T12:56:39;19.30;;;11.10;;
5077;SDS011;2557;51.390;7.494;2023-08-17T12:59:05;12.47;;;10.40;;
5077;SDS011;2557;51.390;7.494;2023-08-17T13:01:31;15.10;;;10.90;;
5077;SDS011;2557;51.390;7.494;2023-08-17T13:03:57;12.30;;;11.00;;
5077;SDS011;2557;51.390;7.494;2023-08-17T13:06:23;12.53;;;11.17;;
5077;SDS011;2557;51.390;7.494;2023-08-17T13:08:49;10.43;;;9.40;;
5077;SDS011;2557;51.390;7.494;2023-08-17T13:11:15;14.23;;;10.60;;
5077;SDS011;2557;51.390;7.494;2023-08-17T13:13:41;16.57;;;11.57;;
5077;SDS011;2557;51.390;7.494;2023-08-17T13:16:07;13.00;;;10.03;;
5077;SDS011;2557;51.390;7.494;2023-08-17T13:18:34;11.80;;;9.73;;
5077;SDS011;2557;51.390;7.494;2023-08-17T13:21:00;10.90;;;9.80;;
5077;SDS011;2557;51.390;7.494;2023-08-17T13:23:26;12.23;;;11.03;;
5077;SDS011;2557;51.390;7.494;2023-08-17T13:25:52;10.93;;;9.83;;
5077;SDS011;2557;51.390;7.494;2023-08-17T13:28:18;13.40;;;10.60;;
5077;SDS011;2557;51.390;7.494;2023-08-17T13:30:44;12.60;;;11.30;;
5077;SDS011;2557;51.390;7.494;2023-08-17T13:33:11;12.20;;;10.40;;
5077;SDS011;2557;51.390;7.494;2023-08-17T13:35:37;12.13;;;10.93;;
5077;SDS011;2557;51.390;7.494;2023-08-17T13:38:04;11.00;;;10.00;;
5077;SDS011;2557;51.390;7.494;2023-08-17T13:40:30;11.20;;;9.50;;
5077;SDS011;2557;51.390;7.494;2023-08-17T13:42:56;12.23;;;9.70;;
5077;SDS011;2557;51.390;7.494;2023-08-17T13:45:26;10.50;;;8.80;;
5077;SDS011;2557;51.390;7.494;2023-08-17T13:47:52;10.90;;;8.50;;
5077;SDS011;2557;51.390;7.494;2023-08-17T13:50:18;11.10;;;8.50;;
5077;SDS011;2557;51.390;7.494;2023-08-17T13:52:44;9.20;;;8.23;;
5077;SDS011;2557;51.390;7.494;2023-08-17T13:55:11;18.90;;;9.53;;
5077;SDS011;2557;51.390;7.494;2023-08-17T13:57:37;9.27;;;8.30;;
5077;SDS011;2557;51.390;7.494;2023-08-17T14:00:03;10.83;;;8.80;;
5077;SDS011;2557;51.390;7.494;2023-08-17T14:02:30;8.93;;;8.13;;
5077;SDS011;2557;51.390;7.494;2023-08-17T14:04:56;8.47;;;7.57;;
5077;SDS011;2557;51.390;7.494;2023-08-17T14:07:22;12.10;;;9.90;;
5077;SDS011;2557;51.390;7.494;2023-08-17T14:09:48;9.80;;;8.80;;
5077;SDS011;2557;51.390;7.494;2023-08-17T14:12:14;11.23;;;9.80;;
5077;SDS011;2557;51.390;7.494;2023-08-17T14:14:40;10.87;;;9.50;;
5077;SDS011;2557;51.390;7.494;2023-08-17T14:17:06;9.57;;;8.70;;
5077;SDS011;2557;51.390;7.494;2023-08-17T14:19:32;10.10;;;9.20;;
5077;SDS011;2557;51.390;7.494;2023-08-17T14:21:58;9.87;;;8.83;;
5077;SDS011;2557;51.390;7.494;2023-08-17T14:24:27;11.73;;;10.53;;
5077;SDS011;2557;51.390;7.494;2023-08-17T14:26:53;11.90;;;10.80;;
5077;SDS011;2557;51.390;7.494;2023-08-17T14:29:19;13.23;;;11.70;;
5077;SDS011;2557;51.390;7.494;2023-08-17T14:31:45;10.60;;;9.47;;
5077;SDS011;2557;51.390;7.494;2023-08-17T14:34:11;14.40;;;11.13;;
5077;SDS011;2557;51.390;7.494;2023-08-17T14:36:38;11.90;;;10.70;;
5077;SDS011;2557;51.390;7.494;2023-08-17T14:39:04;12.73;;;11.00;;
5077;SDS011;2557;51.390;7.494;2023-08-17T14:41:30;12.70;;;10.07;;
5077;SDS011;2557;51.390;7.494;2023-08-17T14:43:58;12.03;;;10.83;;
5077;SDS011;2557;51.390;7.494;2023-08-17T14:46:24;15.93;;;10.80;;
5077;SDS011;2557;51.390;7.494;2023-08-17T14:48:50;12.37;;;11.07;;
5077;SDS011;2557;51.390;7.494;2023-08-17T14:51:16;16.13;;;11.77;;
5077;SDS011;2557;51.390;7.494;2023-08-17T14:53:42;13.73;;;11.70;;
5077;SDS011;2557;51.390;7.494;2023-08-17T14:56:09;13.20;;;11.27;;
5077;SDS011;2557;51.390;7.494;2023-08-17T14:58:35;14.70;;;11.57;;